Time;durP1;ratioP1;P1;durP2;ratioP2;P2;SDS_P1;SDS_P2;PMS_P1;PMS_P2;Temp;Humidity;BMP_temperature;BMP_pressure;BME280_temperature;BME280_humidity;BME280_pressure;Samples;Min_cycle;Max_cycle;Signal;HPM_P1;HPM_P2
2022/11/28 00:04:08;;;;;;;1.58;0.77;;;;;;;19.55;41.72;100893.38;16125842;19;130382;-38
2022/11/28 00:09:30;;;;;;;0.85;0.70;;;;;;;19.50;41.70;100884.97;16127670;19;130683;-39
2022/11/28 00:14:51;;;;;;;0.95;0.60;;;;;;;19.48;41.44;100871.38;16127825;19;130498;-38
2022/11/28 00:20:13;;;;;;;0.63;0.45;;;;;;;19.45;41.40;100866.31;16127019;19;129404;-44
2022/11/28 00:25:38;;;;;;;2.85;0.65;;;;;;;19.44;41.56;100866.56;16126930;19;130062;-42
2022/11/28 00:31:00;;;;;;;1.58;0.57;;;;;;;19.40;41.30;100860.66;16130638;19;129960;-43
2022/11/28 00:36:22;;;;;;;1.33;0.80;;;;;;;19.38;41.60;100849.00;16125362;19;129453;-43
2022/11/28 00:41:44;;;;;;;1.08;0.70;;;;;;;19.35;41.44;100850.34;16126810;19;129365;-41
2022/11/28 00:47:06;;;;;;;1.23;0.63;;;;;;;19.31;41.31;100849.19;16128203;19;130495;-39
2022/11/28 00:52:27;;;;;;;1.10;0.52;;;;;;;19.30;41.27;100850.28;16128090;19;129550;-38
2022/11/28 00:57:49;;;;;;;0.77;0.50;;;;;;;19.28;41.34;100857.16;16126191;19;129478;-39
2022/11/28 01:03:11;;;;;;;0.70;0.50;;;;;;;19.26;41.71;100853.81;16124078;19;129416;-38
2022/11/28 01:08:33;;;;;;;1.30;0.68;;;;;;;19.24;41.36;100858.75;16125989;19;130576;-40
2022/11/28 01:13:57;;;;;;;0.80;0.50;;;;;;;19.20;41.37;100853.69;16125755;19;131395;-39
2022/11/28 01:19:19;;;;;;;1.02;0.60;;;;;;;19.18;41.58;100855.88;16124083;19;129632;-40
2022/11/28 01:24:40;;;;;;;0.75;0.45;;;;;;;19.16;41.44;100848.91;16122314;19;129601;-38
2022/11/28 01:30:04;;;;;;;0.55;0.45;;;;;;;19.14;41.52;100838.03;16120480;19;130850;-40
2022/11/28 01:35:26;;;;;;;0.68;0.57;;;;;;;19.13;41.51;100841.94;16120565;19;129376;-38
2022/11/28 01:40:48;;;;;;;2.15;0.50;;;;;;;19.13;41.38;100846.63;16123169;19;129029;-38
2022/11/28 01:46:10;;;;;;;0.98;0.50;;;;;;;19.10;41.32;100844.34;16120559;19;129462;-38
2022/11/28 01:51:33;;;;;;;0.52;0.43;;;;;;;19.07;41.87;100843.78;16121615;19;130240;-38
2022/11/28 01:56:59;;;;;;;0.60;0.50;;;;;;;19.06;41.68;100836.56;16121104;19;129581;-39
2022/11/28 02:02:29;;;;;;;0.85;0.47;;;;;;;19.05;41.76;100840.41;16119608;19;130464;-39
2022/11/28 02:07:51;;;;;;;0.43;0.40;;;;;;;19.01;41.51;100833.69;16120280;19;129362;-38
2022/11/28 02:13:36;;;;;;;0.75;0.45;;;;;;;19.02;41.87;100831.72;16119381;19;129874;-39
2022/11/28 02:19:25;;;;;;;0.55;0.40;;;;;;;18.99;41.90;100830.31;16118193;19;129558;-38
2022/11/28 02:25:15;;;;;;;0.68;0.40;;;;;;;18.95;41.74;100834.69;16117958;19;129625;-38
2022/11/28 02:31:01;;;;;;;1.08;0.40;;;;;;;18.95;41.56;100829.16;16118236;19;129168;-38
2022/11/28 02:36:51;;;;;;;0.70;0.33;;;;;;;18.92;41.64;100827.69;16116886;19;129924;-38
2022/11/28 02:42:29;;;;;;;0.50;0.40;;;;;;;18.91;41.93;100822.41;16116382;19;129606;-40
2022/11/28 02:48:01;;;;;;;0.85;0.45;;;;;;;18.90;42.09;100824.34;16116200;19;129887;-38
2022/11/28 02:53:26;;;;;;;0.52;0.30;;;;;;;18.89;41.96;100813.50;16115959;19;129623;-38
2022/11/28 02:58:48;;;;;;;0.30;0.30;;;;;;;18.86;41.81;100814.84;16116947;19;129364;-39
2022/11/28 03:04:51;;;;;;;0.80;0.43;;;;;;;18.88;41.80;100817.38;16127464;19;131237;-39
2022/11/28 03:10:36;;;;;;;0.65;0.40;;;;;;;18.86;41.93;100814.00;16129168;19;129907;-38
2022/11/28 03:16:20;;;;;;;0.43;0.35;;;;;;;18.82;41.91;100815.63;16128921;19;129962;-38
2022/11/28 03:22:04;;;;;;;0.57;0.40;;;;;;;18.82;41.67;100815.63;16120034;19;130119;-38
2022/11/28 03:27:34;;;;;;;0.20;0.20;;;;;;;18.81;41.74;100814.75;16120631;19;130282;-38
2022/11/28 03:32:59;;;;;;;0.65;0.30;;;;;;;18.80;41.65;100815.03;16119928;19;129677;-38
2022/11/28 03:38:28;;;;;;;0.20;0.20;;;;;;;18.79;41.71;100816.09;16116817;19;129793;-39
2022/11/28 03:43:55;;;;;;;0.30;0.30;;;;;;;18.78;41.99;100812.47;16118080;19;133997;-38
2022/11/28 03:49:24;;;;;;;0.30;0.30;;;;;;;18.78;41.80;100809.72;16118214;19;129637;-39
2022/11/28 03:54:52;;;;;;;0.28;0.25;;;;;;;18.75;42.16;100802.75;16117937;19;130024;-39
2022/11/28 04:00:14;;;;;;;0.52;0.40;;;;;;;18.74;42.03;100801.06;16123934;19;129689;-39
2022/11/28 04:06:19;;;;;;;0.20;0.20;;;;;;;18.72;41.73;100803.22;16128313;19;129907;-38
2022/11/28 04:11:48;;;;;;;0.40;0.30;;;;;;;18.72;41.73;100797.69;16117374;19;130289;-38
2022/11/28 04:17:17;;;;;;;0.30;0.30;;;;;;;18.71;41.75;100807.09;16120243;19;130012;-38
2022/11/28 04:22:47;;;;;;;0.20;0.20;;;;;;;18.70;41.95;100813.75;16119401;19;130701;-38
2022/11/28 04:28:17;;;;;;;0.45;0.45;;;;;;;18.70;41.97;100815.66;16119515;19;129352;-38
2022/11/28 04:33:43;;;;;;;0.38;0.38;;;;;;;18.67;42.26;100811.47;16119571;19;129813;-38
2022/11/28 04:39:10;;;;;;;0.32;0.30;;;;;;;18.69;41.92;100819.53;16118448;19;129299;-38
2022/11/28 04:44:47;;;;;;;0.30;0.30;;;;;;;18.68;41.83;100809.53;16125854;19;129609;-38
2022/11/28 04:50:09;;;;;;;0.50;0.30;;;;;;;18.66;42.14;100820.88;16124823;19;129625;-38
2022/11/28 04:55:41;;;;;;;0.45;0.20;;;;;;;18.64;41.82;100806.44;16128468;19;129863;-38
2022/11/28 05:01:06;;;;;;;0.30;0.25;;;;;;;18.64;42.24;100820.28;16124255;19;130201;-38
2022/11/28 05:06:31;;;;;;;0.20;0.20;;;;;;;18.63;42.25;100823.31;16125657;19;129337;-38
2022/11/28 05:11:53;;;;;;;0.20;0.20;;;;;;;18.63;42.18;100828.84;16126662;19;130927;-38
2022/11/28 05:17:15;;;;;;;0.20;0.20;;;;;;;18.62;41.97;100830.75;16122176;19;134504;-38
2022/11/28 05:22:36;;;;;;;0.50;0.20;;;;;;;18.61;41.96;100841.03;16126657;19;129238;-38
2022/11/28 05:27:58;;;;;;;0.30;0.25;;;;;;;18.60;42.32;100824.63;16120664;19;130503;-38
2022/11/28 05:33:20;;;;;;;0.43;0.30;;;;;;;18.59;42.38;100820.16;16124694;19;129425;-38
2022/11/28 05:38:42;;;;;;;0.25;0.25;;;;;;;18.58;41.84;100819.34;16121242;19;129576;-38
2022/11/28 05:44:04;;;;;;;0.20;0.20;;;;;;;18.60;42.20;100832.94;16119893;19;131463;-39
2022/11/28 05:49:27;;;;;;;0.30;0.30;;;;;;;18.59;42.25;100825.72;16124188;19;129370;-38
2022/11/28 05:54:49;;;;;;;0.68;0.30;;;;;;;18.58;42.19;100824.06;16120104;19;129513;-38
2022/11/28 06:00:13;;;;;;;1.23;0.30;;;;;;;18.57;41.93;100833.47;16122498;19;129693;-38
2022/11/28 06:05:38;;;;;;;0.43;0.20;;;;;;;18.55;42.43;100835.63;16122820;19;136495;-38
2022/11/28 06:11:05;;;;;;;0.20;0.20;;;;;;;18.55;42.18;100835.63;16120732;19;130283;-38
2022/11/28 06:16:28;;;;;;;0.10;0.10;;;;;;;18.56;42.39;100831.78;16119545;19;129341;-40
2022/11/28 06:21:50;;;;;;;0.20;0.20;;;;;;;18.55;42.42;100832.84;16117354;19;131937;-39
2022/11/28 06:27:12;;;;;;;0.50;0.30;;;;;;;18.55;42.14;100835.63;16118547;19;129667;-38
2022/11/28 06:32:33;;;;;;;0.75;0.22;;;;;;;18.54;42.01;100845.03;16121034;19;129662;-38
2022/11/28 06:37:55;;;;;;;0.30;0.25;;;;;;;18.54;42.07;100854.16;16132217;19;129638;-38
2022/11/28 06:43:17;;;;;;;0.75;0.20;;;;;;;18.54;42.06;100864.41;16135028;19;130529;-38
2022/11/28 06:48:39;;;;;;;0.10;0.10;;;;;;;18.54;42.50;100861.66;16134413;19;129988;-39
2022/11/28 06:54:00;;;;;;;0.25;0.20;;;;;;;18.54;42.20;100868.03;16131588;19;129414;-38
2022/11/28 06:59:22;;;;;;;0.30;0.28;;;;;;;18.52;42.43;100866.59;16132080;19;129380;-38
2022/11/28 07:04:44;;;;;;;1.75;0.20;;;;;;;18.51;42.11;100870.44;16133098;19;129756;-38
2022/11/28 07:10:06;;;;;;;1.83;0.15;;;;;;;18.51;42.10;100867.69;16133332;19;129657;-39
2022/11/28 07:15:28;;;;;;;0.63;0.20;;;;;;;18.51;42.51;100876.00;16132791;19;130290;-38
2022/11/28 07:20:50;;;;;;;4.50;0.30;;;;;;;18.50;42.40;100885.38;16131488;19;134519;-38
2022/11/28 07:26:13;;;;;;;0.88;0.20;;;;;;;18.47;42.21;100881.19;16128790;19;130724;-38
2022/11/28 07:31:35;;;;;;;2.40;0.60;;;;;;;18.46;42.42;100873.97;16130817;19;131483;-39
2022/11/28 07:36:57;;;;;;;5.45;0.47;;;;;;;18.46;42.10;100888.63;16130157;19;129902;-39
2022/11/28 07:42:19;;;;;;;6.85;0.32;;;;;;;18.44;42.59;100890.84;16128752;19;129660;-38
2022/11/28 07:47:40;;;;;;;3.55;0.63;;;;;;;18.43;42.67;100882.75;16128453;19;129676;-38
2022/11/28 07:53:02;;;;;;;0.63;0.20;;;;;;;18.41;42.27;100888.56;16125950;19;130511;-38
2022/11/28 07:58:27;;;;;;;2.22;0.80;;;;;;;18.43;42.80;100899.38;16127774;19;130182;-39
2022/11/28 08:03:51;;;;;;;3.80;0.90;;;;;;;18.62;42.23;100900.03;16126444;19;129777;-41
2022/11/28 08:09:13;;;;;;;7.97;0.90;;;;;;;18.93;42.11;100911.72;16123796;19;129785;-39
2022/11/28 08:14:34;;;;;;;4.90;1.08;;;;;;;19.18;41.97;100910.50;16128010;19;129656;-39
2022/11/28 08:19:56;;;;;;;1.60;0.85;;;;;;;19.37;41.26;100913.91;16126155;19;130082;-41
2022/11/28 08:25:18;;;;;;;5.50;1.02;;;;;;;19.44;41.54;100914.56;16125102;19;129917;-40
2022/11/28 08:30:39;;;;;;;2.58;0.60;;;;;;;19.44;41.62;100919.28;16126371;19;130990;-40
2022/11/28 08:36:06;;;;;;;3.58;0.82;;;;;;;19.43;41.58;100918.44;16125356;19;129338;-40
2022/11/28 08:41:28;;;;;;;2.88;0.60;;;;;;;19.42;41.57;100910.38;16115922;19;130307;-40
2022/11/28 08:46:50;;;;;;;4.72;0.73;;;;;;;19.40;41.34;100907.00;16114535;19;132687;-44
2022/11/28 08:52:12;;;;;;;7.05;1.00;;;;;;;19.36;41.26;100920.56;16114888;19;129697;-41
2022/11/28 08:57:33;;;;;;;3.63;0.90;;;;;;;19.30;41.55;100919.63;16118506;19;129457;-42
2022/11/28 09:02:55;;;;;;;3.95;0.80;;;;;;;19.27;41.58;100925.66;16120528;19;130165;-42
2022/11/28 09:08:19;;;;;;;3.30;0.73;;;;;;;19.25;41.35;100936.16;16120936;19;129718;-40
2022/11/28 09:13:40;;;;;;;2.33;0.70;;;;;;;19.22;41.47;100934.75;16118528;19;129553;-40
2022/11/28 09:19:02;;;;;;;4.38;0.77;;;;;;;19.19;41.52;100929.66;16121909;19;129098;-39
2022/11/28 09:24:24;;;;;;;3.70;1.00;;;;;;;19.16;41.76;100923.78;16118811;19;129521;-40
2022/11/28 09:29:46;;;;;;;4.20;0.80;;;;;;;19.20;41.77;100920.25;16123489;19;129819;-39
2022/11/28 09:35:08;;;;;;;2.88;0.80;;;;;;;19.26;41.89;100918.44;16122439;19;129730;-40
2022/11/28 09:40:43;;;;;;;4.10;0.70;;;;;;;19.34;41.87;100923.56;16123313;19;136459;-40
2022/11/28 09:46:12;;;;;;;4.53;1.30;;;;;;;19.40;42.07;100943.06;16119679;19;130413;-40
2022/11/28 09:51:43;;;;;;;1.15;0.60;;;;;;;19.46;41.62;100945.69;16120022;19;129788;-40
2022/11/28 09:57:17;;;;;;;3.55;0.70;;;;;;;19.51;41.63;100958.81;16120611;19;129659;-40
2022/11/28 10:03:00;;;;;;;4.03;0.70;;;;;;;19.56;41.46;100952.50;16120332;19;130543;-40
2022/11/28 10:08:30;;;;;;;5.30;0.90;;;;;;;19.60;41.79;100957.28;16114698;19;129441;-39
2022/11/28 10:14:06;;;;;;;3.17;0.50;;;;;;;19.66;41.37;100956.28;16117614;19;129489;-41
2022/11/28 10:19:37;;;;;;;4.10;0.60;;;;;;;19.74;41.64;100956.94;16119242;19;129512;-42
2022/11/28 10:25:23;;;;;;;2.17;0.75;;;;;;;19.77;41.42;100962.81;16117294;19;130940;-41
2022/11/28 10:30:50;;;;;;;4.05;0.60;;;;;;;19.78;41.48;100969.22;16118305;19;129473;-42
2022/11/28 10:36:45;;;;;;;4.38;0.70;;;;;;;19.74;41.22;100970.81;16118615;19;129899;-42
2022/11/28 10:42:17;;;;;;;2.92;0.40;;;;;;;19.74;41.66;100962.50;16115375;19;129375;-41
2022/11/28 10:48:09;;;;;;;1.73;0.60;;;;;;;19.70;42.12;100973.28;16117799;19;130172;-43
2022/11/28 10:54:00;;;;;;;1.73;0.63;;;;;;;19.67;42.14;100957.97;16120383;19;129505;-42
2022/11/28 10:59:35;;;;;;;2.25;0.60;;;;;;;19.65;42.33;100959.28;16114330;19;129352;-42
2022/11/28 11:04:57;;;;;;;2.63;0.43;;;;;;;19.62;42.33;100966.19;16115070;19;129661;-44
2022/11/28 11:10:28;;;;;;;2.97;0.70;;;;;;;19.59;42.76;100961.16;16112795;19;129583;-42
2022/11/28 11:16:01;;;;;;;2.83;0.68;;;;;;;19.54;42.58;100961.06;16114703;19;130720;-44
2022/11/28 11:21:25;;;;;;;2.45;0.90;;;;;;;19.48;42.26;100956.53;16114014;19;130410;-41
2022/11/28 11:26:48;;;;;;;3.78;0.80;;;;;;;19.42;42.28;100963.09;16130373;19;130591;-45
2022/11/28 11:32:25;;;;;;;1.85;0.88;;;;;;;19.40;42.33;100970.81;16129713;19;129956;-47
2022/11/28 11:37:47;;;;;;;2.45;0.80;;;;;;;19.33;42.38;100966.25;16128486;19;129516;-51
2022/11/28 11:43:35;;;;;;;0.75;0.50;;;;;;;19.33;42.95;100952.38;16126686;19;130378;-50
2022/11/28 11:48:57;;;;;;;1.60;0.70;;;;;;;19.32;42.66;100961.78;16126410;19;129080;-47
2022/11/28 11:54:18;;;;;;;4.05;0.80;;;;;;;19.33;42.60;100966.25;16127385;19;129486;-40
2022/11/28 11:59:49;;;;;;;3.13;0.60;;;;;;;19.35;42.90;100964.06;16130479;19;130390;-41
2022/11/28 12:05:30;;;;;;;3.75;0.82;;;;;;;19.38;42.97;100959.97;16128888;19;130053;-42
2022/11/28 12:11:12;;;;;;;1.08;0.60;;;;;;;19.34;43.17;100954.06;16128468;19;129808;-42
2022/11/28 12:17:15;;;;;;;2.88;0.60;;;;;;;19.32;42.85;100947.91;16128789;19;130332;-40
2022/11/28 12:22:57;;;;;;;2.83;0.63;;;;;;;19.27;42.96;100964.50;16123575;19;129398;-41
2022/11/28 12:28:48;;;;;;;1.88;0.47;;;;;;;19.23;43.17;100960.53;16124199;19;129945;-40
2022/11/28 12:34:51;;;;;;;2.00;0.50;;;;;;;19.22;43.18;100967.16;16122751;19;131170;-41
2022/11/28 12:40:24;;;;;;;1.42;0.65;;;;;;;19.16;43.42;100968.13;16114919;19;130069;-40
2022/11/28 12:46:03;;;;;;;1.00;0.47;;;;;;;19.15;43.32;100972.81;16114747;19;129767;-41
2022/11/28 12:51:34;;;;;;;2.38;0.50;;;;;;;19.20;42.98;100958.25;16113844;19;132337;-41
2022/11/28 12:57:16;;;;;;;4.18;0.80;;;;;;;19.43;42.93;100954.50;16113361;19;129744;-41
2022/11/28 13:03:09;;;;;;;1.25;0.40;;;;;;;19.84;42.91;100954.31;16116956;19;129991;-40
2022/11/28 13:08:47;;;;;;;1.08;0.60;;;;;;;20.34;42.14;100960.06;16113920;19;129786;-43
2022/11/28 13:14:29;;;;;;;4.40;0.70;;;;;;;20.79;41.73;100966.50;16119461;19;129788;-44
2022/11/28 13:20:27;;;;;;;2.97;0.50;;;;;;;21.15;40.92;100964.97;16122700;19;129479;-43
2022/11/28 13:26:02;;;;;;;1.00;0.50;;;;;;;21.38;40.43;100971.28;16119090;19;129635;-40
2022/11/28 13:31:38;;;;;;;1.45;0.50;;;;;;;21.42;40.20;100969.63;16113847;19;129770;-42
2022/11/28 13:37:15;;;;;;;2.17;0.55;;;;;;;21.33;39.98;100977.66;16119453;19;129630;-41
2022/11/28 13:43:11;;;;;;;4.37;0.87;;;;;;;21.21;40.20;100975.03;16119835;19;130040;-40
2022/11/28 13:48:33;;;;;;;3.38;0.77;;;;;;;21.06;40.49;100972.06;16119934;19;129825;-43
2022/11/28 13:54:18;;;;;;;1.83;0.80;;;;;;;20.94;40.51;100971.38;16121883;19;130449;-41
2022/11/28 13:59:47;;;;;;;3.35;1.00;;;;;;;20.81;40.95;100969.84;16121825;19;129520;-40
2022/11/28 14:05:35;;;;;;;5.30;0.90;;;;;;;20.67;40.93;100974.94;16118814;19;130039;-41
2022/11/28 14:11:17;;;;;;;6.43;1.30;;;;;;;20.49;40.80;100974.16;16117642;19;130509;-41
2022/11/28 14:17:15;;;;;;;10.70;2.00;;;;;;;20.32;40.69;100979.78;16117761;19;129551;-42
2022/11/28 14:23:10;;;;;;;8.95;2.67;;;;;;;20.18;40.69;100993.19;16113625;19;131634;-42
2022/11/28 14:28:36;;;;;;;10.60;2.28;;;;;;;20.07;40.77;100988.56;16119558;19;129307;-43
2022/11/28 14:34:09;;;;;;;7.20;1.90;;;;;;;20.01;41.02;100995.16;16117890;19;129920;-41
2022/11/28 14:39:33;;;;;;;8.60;1.85;;;;;;;19.93;41.38;101010.28;16119427;19;130197;-43
2022/11/28 14:45:00;;;;;;;6.65;1.38;;;;;;;19.87;41.74;101012.13;16115868;19;129936;-44
2022/11/28 14:50:28;;;;;;;5.20;1.67;;;;;;;19.84;41.96;101016.25;16117074;19;129424;-41
2022/11/28 14:55:50;;;;;;;3.17;1.25;;;;;;;19.85;41.88;101025.41;16117032;19;129472;-43
2022/11/28 15:01:19;;;;;;;8.60;2.03;;;;;;;19.85;41.90;101033.75;16127795;19;129844;-43
2022/11/28 15:06:42;;;;;;;9.38;1.50;;;;;;;19.82;41.59;101043.44;16127916;19;129519;-42
2022/11/28 15:12:22;;;;;;;7.95;1.83;;;;;;;19.83;41.59;101039.56;16126511;19;129589;-42
2022/11/28 15:17:48;;;;;;;12.43;2.30;;;;;;;19.83;41.84;101033.16;16129422;19;129729;-43
2022/11/28 15:23:29;;;;;;;11.38;1.80;;;;;;;19.81;42.06;101029.81;16121986;19;134111;-39
2022/11/28 15:29:25;;;;;;;6.18;1.83;;;;;;;19.81;41.99;101027.03;16126916;19;129905;-40
2022/11/28 15:34:58;;;;;;;7.93;1.53;;;;;;;19.80;42.00;101040.06;16124929;19;129238;-40
2022/11/28 15:40:38;;;;;;;7.95;1.95;;;;;;;19.78;42.05;101035.84;16119103;19;130862;-43
2022/11/28 15:46:01;;;;;;;8.18;1.50;;;;;;;19.75;42.13;101051.09;16123878;19;129542;-37
2022/11/28 15:51:27;;;;;;;7.53;1.52;;;;;;;19.75;42.39;101053.00;16117047;19;129996;-39
2022/11/28 15:56:56;;;;;;;7.68;1.52;;;;;;;19.73;42.29;101056.03;16125416;19;130025;-39
2022/11/28 16:02:39;;;;;;;5.35;1.40;;;;;;;19.69;42.35;101066.78;16123624;19;130313;-41
2022/11/28 16:08:01;;;;;;;8.05;1.63;;;;;;;19.65;42.36;101073.94;16123094;19;129698;-39
2022/11/28 16:13:23;;;;;;;5.78;1.30;;;;;;;19.63;42.44;101080.84;16119378;19;129880;-40
2022/11/28 16:18:52;;;;;;;7.43;1.35;;;;;;;19.59;42.73;101086.03;16120560;19;130300;-40
2022/11/28 16:24:28;;;;;;;5.32;1.70;;;;;;;19.57;42.85;101087.38;16122073;19;130586;-40
2022/11/28 16:29:56;;;;;;;7.50;1.50;;;;;;;19.52;42.50;101090.91;16124148;19;130677;-40
2022/11/28 16:35:32;;;;;;;7.43;1.55;;;;;;;19.57;42.73;101095.69;16124349;19;129536;-41
2022/11/28 16:41:00;;;;;;;5.22;1.20;;;;;;;19.71;42.32;101118.44;16127498;19;131030;-45
2022/11/28 16:46:24;;;;;;;5.35;1.95;;;;;;;19.87;41.68;101122.34;16124868;19;130077;-39
2022/11/28 16:51:46;;;;;;;5.90;1.80;;;;;;;20.04;41.48;101122.41;16125205;19;130241;-41
2022/11/28 16:57:16;;;;;;;5.28;1.90;;;;;;;20.14;41.10;101120.63;16123922;19;129516;-40
2022/11/28 17:02:37;;;;;;;7.57;1.63;;;;;;;20.18;41.22;101122.91;16121935;19;129606;-42
2022/11/28 17:08:00;;;;;;;7.65;2.17;;;;;;;20.14;40.89;101119.78;16124380;19;130293;-40
2022/11/28 17:13:22;;;;;;;6.40;2.22;;;;;;;20.09;40.82;101128.88;16122870;19;129693;-41
2022/11/28 17:18:44;;;;;;;6.55;2.00;;;;;;;20.03;40.85;101131.81;16119881;19;129551;-41
2022/11/28 17:24:28;;;;;;;6.43;2.40;;;;;;;19.95;40.93;101144.97;16120738;19;129442;-40
2022/11/28 17:29:49;;;;;;;5.47;1.90;;;;;;;19.86;41.00;101143.72;16121700;19;134254;-42
2022/11/28 17:35:15;;;;;;;6.78;2.05;;;;;;;19.81;41.01;101146.41;16121914;19;129469;-41
2022/11/28 17:40:40;;;;;;;15.73;2.50;;;;;;;19.77;40.95;101151.59;16120436;19;132702;-40
2022/11/28 17:46:02;;;;;;;26.90;12.90;;;;;;;19.75;41.68;101159.34;16118203;19;130681;-40
2022/11/28 17:51:25;;;;;;;36.25;19.92;;;;;;;19.87;41.93;101166.78;16118182;19;129502;-40
2022/11/28 17:56:48;;;;;;;37.47;18.45;;;;;;;20.18;41.85;101162.66;16120492;19;129601;-39
2022/11/28 18:02:10;;;;;;;39.55;20.40;;;;;;;20.70;41.74;101155.13;16118475;19;131980;-38
2022/11/28 18:07:31;;;;;;;35.95;19.05;;;;;;;21.17;40.87;101154.69;16119525;19;129401;-41
2022/11/28 18:12:54;;;;;;;39.90;18.05;;;;;;;21.47;41.01;101145.06;16119452;19;131137;-40
2022/11/28 18:18:16;;;;;;;30.30;18.00;;;;;;;21.65;40.88;101154.19;16119290;19;129431;-42
2022/11/28 18:23:44;;;;;;;31.85;19.35;;;;;;;21.75;40.41;101156.22;16119291;19;129660;-39
2022/11/28 18:29:06;;;;;;;40.13;19.98;;;;;;;21.79;40.60;101162.97;16116096;19;129561;-40
2022/11/28 18:34:28;;;;;;;33.55;16.92;;;;;;;21.81;40.93;101167.16;16117907;19;129558;-39
2022/11/28 18:39:50;;;;;;;27.50;15.38;;;;;;;21.78;41.01;101164.06;16121315;19;134062;-41
2022/11/28 18:45:11;;;;;;;37.42;16.13;;;;;;;21.69;41.14;101160.91;16107685;19;130017;-40
2022/11/28 18:50:33;;;;;;;32.83;15.52;;;;;;;21.57;41.12;101171.34;16106491;19;130695;-40
2022/11/28 18:56:00;;;;;;;23.45;13.45;;;;;;;21.44;41.28;101176.19;16116739;19;129285;-40
2022/11/28 19:01:29;;;;;;;24.35;15.55;;;;;;;21.30;41.37;101184.09;16116562;19;130283;-42
2022/11/28 19:06:51;;;;;;;31.60;16.52;;;;;;;21.16;41.71;101189.19;16117108;19;129568;-40
2022/11/28 19:12:13;;;;;;;33.75;16.15;;;;;;;21.06;42.25;101198.25;16116034;19;129704;-41
2022/11/28 19:17:34;;;;;;;44.22;28.58;;;;;;;21.02;42.07;101199.00;16119568;19;131034;-40
2022/11/28 19:22:56;;;;;;;69.32;41.40;;;;;;;21.03;42.04;101192.34;16113075;19;129686;-39
2022/11/28 19:28:18;;;;;;;52.95;34.78;;;;;;;21.11;41.92;101202.19;16114109;19;129918;-39
2022/11/28 19:33:40;;;;;;;56.25;30.88;;;;;;;21.18;42.09;101203.66;16114545;19;130101;-40
2022/11/28 19:39:03;;;;;;;44.58;26.73;;;;;;;21.25;41.88;101197.09;16115529;19;131110;-42
2022/11/28 19:44:27;;;;;;;31.75;21.73;;;;;;;21.32;42.09;101197.72;16122922;19;129910;-40
2022/11/28 19:49:49;;;;;;;43.22;21.33;;;;;;;21.35;42.07;101202.78;16129332;19;129589;-41
2022/11/28 19:55:11;;;;;;;34.28;19.35;;;;;;;21.36;42.09;101199.72;16130580;19;130038;-41
2022/11/28 20:00:33;;;;;;;25.15;16.95;;;;;;;21.35;41.96;101209.19;16131085;19;129765;-40
2022/11/28 20:05:54;;;;;;;31.70;15.27;;;;;;;21.30;41.83;101211.91;16131109;19;129302;-40
2022/11/28 20:11:20;;;;;;;26.95;15.70;;;;;;;21.24;42.14;101217.66;16127308;19;128881;-40
2022/11/28 20:16:43;;;;;;;61.78;22.23;;;;;;;21.12;41.82;101218.63;16130707;19;129403;-40
2022/11/28 20:22:06;;;;;;;47.53;23.02;;;;;;;20.96;41.59;101227.84;16125704;19;129414;-42
2022/11/28 20:27:28;;;;;;;45.70;20.95;;;;;;;20.87;41.98;101228.28;16128198;19;129414;-42
2022/11/28 20:32:49;;;;;;;56.92;18.10;;;;;;;20.81;42.52;101223.72;16123841;19;132822;-40
2022/11/28 20:38:11;;;;;;;64.88;18.15;;;;;;;20.77;42.65;101236.47;16126973;19;129773;-40
2022/11/28 20:43:35;;;;;;;31.40;16.10;;;;;;;20.73;42.64;101232.47;16126628;19;129656;-40
2022/11/28 20:49:00;;;;;;;30.40;12.43;;;;;;;20.70;43.07;101241.28;16126032;19;129416;-40
2022/11/28 20:54:24;;;;;;;32.43;12.63;;;;;;;20.69;43.39;101250.72;16123435;19;130050;-41
2022/11/28 20:59:46;;;;;;;34.00;11.35;;;;;;;20.88;43.46;101249.44;16125378;19;130184;-40
2022/11/28 21:05:08;;;;;;;39.17;10.20;;;;;;;21.23;43.15;101255.78;16124264;19;129705;-40
2022/11/28 21:10:31;;;;;;;26.10;8.60;;;;;;;21.55;42.60;101262.63;16124760;19;129311;-41
2022/11/28 21:15:53;;;;;;;20.33;7.32;;;;;;;21.70;42.46;101254.47;16123236;19;129446;-43
2022/11/28 21:21:21;;;;;;;27.98;8.93;;;;;;;21.70;42.18;101265.63;16121181;19;134543;-40
2022/11/28 21:26:44;;;;;;;26.92;8.55;;;;;;;21.62;42.15;101264.13;16124194;19;129862;-40
2022/11/28 21:32:15;;;;;;;16.35;8.32;;;;;;;21.51;41.99;101263.16;16121347;19;129834;-41
2022/11/28 21:37:36;;;;;;;22.55;7.22;;;;;;;21.42;42.07;101267.44;16122300;19;129460;-40
2022/11/28 21:42:58;;;;;;;21.85;6.70;;;;;;;21.31;42.18;101273.97;16121638;19;130224;-39
2022/11/28 21:48:20;;;;;;;20.00;6.70;;;;;;;21.18;42.12;101278.78;16120943;19;130085;-42
2022/11/28 21:53:41;;;;;;;14.52;5.38;;;;;;;21.08;42.50;101281.44;16122988;19;129788;-40
2022/11/28 21:59:03;;;;;;;12.95;4.72;;;;;;;20.97;42.81;101279.59;16121685;19;129954;-39
2022/11/28 22:04:25;;;;;;;13.15;5.28;;;;;;;20.86;42.93;101279.41;16122051;19;130124;-40
2022/11/28 22:09:47;;;;;;;10.13;4.28;;;;;;;20.76;42.63;101293.16;16114932;19;129299;-40
2022/11/28 22:15:09;;;;;;;14.52;4.43;;;;;;;20.68;42.68;101286.03;16114342;19;130341;-39
2022/11/28 22:20:31;;;;;;;9.63;4.05;;;;;;;20.59;42.68;101285.59;16116687;19;129370;-40
2022/11/28 22:25:52;;;;;;;7.82;3.42;;;;;;;20.51;42.79;101277.69;16122853;19;129456;-39
2022/11/28 22:31:16;;;;;;;11.27;3.28;;;;;;;20.47;43.11;101282.06;16119308;19;129599;-40
2022/11/28 22:36:38;;;;;;;6.38;2.97;;;;;;;20.41;43.23;101288.63;16120181;19;130583;-39
2022/11/28 22:42:00;;;;;;;8.20;2.75;;;;;;;20.36;43.02;101294.06;16122766;19;129336;-42
2022/11/28 22:47:21;;;;;;;8.07;2.90;;;;;;;20.29;43.37;101289.53;16117113;19;129193;-41
2022/11/28 22:52:43;;;;;;;6.90;2.28;;;;;;;20.21;43.28;101295.47;16117822;19;129754;-40
2022/11/28 22:58:05;;;;;;;8.07;2.40;;;;;;;20.18;43.56;101300.69;16118998;19;129452;-39
2022/11/28 23:03:27;;;;;;;5.50;2.03;;;;;;;20.13;43.41;101299.47;16118299;19;129781;-41
2022/11/28 23:08:50;;;;;;;3.90;2.20;;;;;;;20.09;43.51;101297.44;16119674;19;129854;-40
2022/11/28 23:14:13;;;;;;;3.75;1.75;;;;;;;20.05;43.50;101308.22;16119279;19;129209;-40
2022/11/28 23:19:34;;;;;;;3.67;1.55;;;;;;;20.01;43.59;101308.97;16129277;19;129729;-40
2022/11/28 23:24:56;;;;;;;4.57;1.50;;;;;;;19.96;43.50;101302.16;16134882;19;129566;-41
2022/11/28 23:30:18;;;;;;;5.32;1.80;;;;;;;19.93;43.52;101311.00;16131808;19;129855;-40
2022/11/28 23:35:40;;;;;;;3.00;1.25;;;;;;;19.90;43.64;101322.59;16134779;19;130452;-42
2022/11/28 23:41:01;;;;;;;3.03;1.40;;;;;;;19.87;43.27;101323.09;16129124;19;129351;-39
2022/11/28 23:46:24;;;;;;;3.97;1.40;;;;;;;19.84;43.30;101313.31;16126930;19;129749;-43
2022/11/28 23:51:46;;;;;;;3.47;1.25;;;;;;;19.81;43.48;101326.84;16130100;19;129592;-39
2022/11/28 23:57:08;;;;;;;1.95;1.10;;;;;;;19.77;43.49;101323.69;16129121;19;129505;-39
